Time;durP1;ratioP1;P1;durP2;ratioP2;P2;SDS_P1;SDS_P2;PMS_P1;PMS_P2;Temp;Humidity;BMP_temperature;BMP_pressure;BME280_temperature;BME280_humidity;BME280_pressure;Samples;Min_cycle;Max_cycle;Signal;HPM_P1;HPM_P2
2023/11/27 02:45:52;;;;;;;0.10;0.10;;;5.40;99.90;;;;;;5008534;28;20049;-88
2023/11/27 02:48:18;;;;;;;0.10;0.10;;;5.40;99.90;;;;;;5024306;28;20038;-88
2023/11/27 02:50:43;;;;;;;0.10;0.10;;;5.50;99.90;;;;;;5004162;28;20022;-87
2023/11/27 02:53:10;;;;;;;0.10;0.10;;;5.40;99.90;;;;;;5008134;28;20065;-88
2023/11/27 02:55:36;;;;;;;0.10;0.10;;;;;;;;;;5041853;28;20029;-89
2023/11/27 02:58:02;;;;;;;0.10;0.10;;;;;;;;;;5009068;28;20038;-87
2023/11/27 03:00:27;;;;;;;0.10;0.10;;;5.40;99.90;;;;;;5023104;28;20096;-86
2023/11/27 03:02:53;;;;;;;0.10;0.10;;;5.40;99.90;;;;;;5029243;28;20446;-88
2023/11/27 03:05:19;;;;;;;0.10;0.10;;;;;;;;;;5012557;28;20044;-87
2023/11/27 03:07:45;;;;;;;0.10;0.10;;;;;;;;;;5010408;28;20057;-88
2023/11/27 03:10:12;;;;;;;0.10;0.10;;;5.50;99.90;;;;;;5040979;28;20096;-87
2023/11/27 03:12:38;;;;;;;0.05;0.05;;;;;;;;;;5011928;28;20506;-87
2023/11/27 03:15:08;;;;;;;0.10;0.10;;;5.50;99.90;;;;;;5042731;28;20076;-86
2023/11/27 03:17:34;;;;;;;0.10;0.10;;;5.50;99.90;;;;;;5008174;28;20117;-87
2023/11/27 03:20:00;;;;;;;0.10;0.10;;;;;;;;;;5011406;28;20121;-87
2023/11/27 03:22:25;;;;;;;0.10;0.10;;;5.40;99.90;;;;;;5023701;28;20018;-87
2023/11/27 03:24:51;;;;;;;0.10;0.10;;;;;;;;;;5014578;28;20049;-87
2023/11/27 03:27:17;;;;;;;0.10;0.10;;;;;;;;;;5038837;28;20228;-88
2023/11/27 03:29:43;;;;;;;0.10;0.10;;;;;;;;;;5008893;28;20025;-87
2023/11/27 03:32:09;;;;;;;0.00;0.00;;;;;;;;;;5005459;28;20088;-86
2023/11/27 03:34:35;;;;;;;0.10;0.10;;;;;;;;;;5025922;28;20038;-87
2023/11/27 03:37:01;;;;;;;0.05;0.05;;;;;;;;;;5023613;28;20025;-87
2023/11/27 03:39:27;;;;;;;0.00;0.00;;;5.20;99.90;;;;;;5024624;28;20121;-87
2023/11/27 03:41:53;;;;;;;0.10;0.10;;;;;;;;;;5008128;28;20398;-88
2023/11/27 03:44:19;;;;;;;0.00;0.00;;;;;;;;;;5038186;28;20042;-87
2023/11/27 03:46:45;;;;;;;0.10;0.10;;;;;;;;;;5023303;28;20037;-89
2023/11/27 03:49:12;;;;;;;0.10;0.10;;;;;;;;;;5024421;28;20038;-87
2023/11/27 03:51:37;;;;;;;0.10;0.10;;;4.50;99.90;;;;;;5023269;28;20030;-87
2023/11/27 03:54:03;;;;;;;0.10;0.10;;;5.10;99.90;;;;;;5006835;28;20116;-87
2023/11/27 03:56:29;;;;;;;0.10;0.10;;;;;;;;;;5008319;28;20034;-87
2023/11/27 03:58:56;;;;;;;0.00;0.00;;;;;;;;;;5025474;28;20022;-87
2023/11/27 04:01:24;;;;;;;0.10;0.10;;;;;;;;;;5009543;28;20401;-86
2023/11/27 04:03:50;;;;;;;0.00;0.00;;;;;;;;;;5011876;28;20541;-87
2023/11/27 04:06:29;;;;;;;0.10;0.10;;;5.20;99.90;;;;;;5011680;28;20030;-86
2023/11/27 04:08:55;;;;;;;0.10;0.10;;;;;;;;;;5008323;28;20044;-86
2023/11/27 04:11:21;;;;;;;0.03;0.03;;;5.20;99.90;;;;;;5001927;28;20040;-86
2023/11/27 04:13:46;;;;;;;0.10;0.10;;;5.20;99.90;;;;;;5012542;28;20041;-87
2023/11/27 04:16:12;;;;;;;0.00;0.00;;;;;;;;;;5007791;28;20120;-86
2023/11/27 04:18:38;;;;;;;0.10;0.10;;;;;;;;;;5039497;28;20142;-86
2023/11/27 04:21:05;;;;;;;0.10;0.10;;;;;;;;;;5008960;28;20086;-86
2023/11/27 04:23:32;;;;;;;0.10;0.10;;;;;;;;;;5010290;28;20483;-86
2023/11/27 04:25:58;;;;;;;0.10;0.10;;;;;;;;;;5039748;28;20536;-86
2023/11/27 04:28:23;;;;;;;0.10;0.10;;;;;;;;;;5027390;28;20120;-86
2023/11/27 04:30:49;;;;;;;0.10;0.10;;;;;;;;;;5047177;28;20068;-86
2023/11/27 04:33:15;;;;;;;0.10;0.10;;;;;;;;;;5022595;28;20036;-86
2023/11/27 04:35:41;;;;;;;0.10;0.10;;;;;;;;;;5014927;28;20041;-85
2023/11/27 04:38:08;;;;;;;0.10;0.10;;;5.30;99.90;;;;;;5029799;28;20057;-85
2023/11/27 04:40:37;;;;;;;0.10;0.10;;;;;;;;;;5011058;28;20026;-86
2023/11/27 04:43:03;;;;;;;0.10;0.10;;;;;;;;;;5025790;28;20057;-86
2023/11/27 04:45:29;;;;;;;0.00;0.00;;;;;;;;;;5024977;28;20041;-87
2023/11/27 04:47:55;;;;;;;0.10;0.10;;;;;;;;;;5042655;28;20042;-85
2023/11/27 04:50:21;;;;;;;0.10;0.10;;;;;;;;;;5047556;28;20113;-87
2023/11/27 04:52:47;;;;;;;0.10;0.10;;;;;;;;;;5044936;28;20141;-85
2023/11/27 04:55:13;;;;;;;0.10;0.10;;;;;;;;;;5026478;28;20033;-86
2023/11/27 04:57:39;;;;;;;0.10;0.10;;;;;;;;;;5023046;28;20026;-87
2023/11/27 05:00:06;;;;;;;0.10;0.10;;;5.20;99.90;;;;;;5044825;28;20033;-87
2023/11/27 05:02:32;;;;;;;0.10;0.10;;;;;;;;;;5012880;28;20088;-86
2023/11/27 05:04:58;;;;;;;0.10;0.10;;;;;;;;;;5029313;28;20060;-86
2023/11/27 05:07:24;;;;;;;0.10;0.10;;;;;;;;;;5027759;28;20033;-86
2023/11/27 05:09:49;;;;;;;0.00;0.00;;;;;;;;;;5040415;28;20022;-86
2023/11/27 05:12:15;;;;;;;0.10;0.10;;;;;;;;;;5023626;28;20025;-86
2023/11/27 05:14:42;;;;;;;0.10;0.10;;;;;;;;;;5040739;28;20490;-87
2023/11/27 05:17:08;;;;;;;0.10;0.10;;;;;;;;;;5028313;28;20041;-86
2023/11/27 05:19:35;;;;;;;0.10;0.10;;;;;;;;;;5011408;28;20540;-88
2023/11/27 05:22:01;;;;;;;0.10;0.10;;;;;;;;;;5011808;28;20034;-86
2023/11/27 05:24:27;;;;;;;0.10;0.10;;;;;;;;;;5012519;28;20041;-86
2023/11/27 05:26:53;;;;;;;0.10;0.10;;;;;;;;;;5029912;28;20025;-86
2023/11/27 05:29:19;;;;;;;0.10;0.10;;;;;;;;;;5014392;28;20041;-86
2023/11/27 05:31:46;;;;;;;0.10;0.10;;;;;;;;;;5009394;28;20133;-86
2023/11/27 05:34:12;;;;;;;0.10;0.10;;;;;;;;;;5028212;28;20478;-86
2023/11/27 05:36:38;;;;;;;0.10;0.10;;;;;;;;;;5011521;28;20034;-87
2023/11/27 05:39:05;;;;;;;0.00;0.00;;;;;;;;;;5042150;28;20057;-86
2023/11/27 05:41:31;;;;;;;0.10;0.10;;;;;;;;;;5010492;28;20022;-87
2023/11/27 05:43:57;;;;;;;0.10;0.10;;;;;;;;;;5043755;28;20033;-87
2023/11/27 05:46:24;;;;;;;0.10;0.10;;;;;;;;;;5010619;28;20025;-86
2023/11/27 05:48:50;;;;;;;0.10;0.10;;;;;;;;;;5042621;28;20034;-86
2023/11/27 05:51:16;;;;;;;0.10;0.10;;;;;;;;;;5043547;28;20037;-86
2023/11/27 05:53:42;;;;;;;0.10;0.10;;;;;;;;;;5024589;28;20030;-88
2023/11/27 05:56:08;;;;;;;0.03;0.03;;;5.20;99.90;;;;;;5006596;28;20160;-86
2023/11/27 05:58:35;;;;;;;0.03;0.03;;;;;;;;;;5012310;28;20467;-88
2023/11/27 06:01:01;;;;;;;0.10;0.10;;;;;;;;;;5013475;28;20026;-89
2023/11/27 06:03:27;;;;;;;0.00;0.00;;;5.20;99.90;;;;;;5023975;28;20112;-87
2023/11/27 06:05:53;;;;;;;0.00;0.00;;;;;;;;;;5011751;28;20025;-87
2023/11/27 06:08:20;;;;;;;0.10;0.10;;;;;;;;;;5029151;28;20368;-87
2023/11/27 06:10:46;;;;;;;0.00;0.00;;;;;;;;;;5018187;28;20120;-87
2023/11/27 06:13:12;;;;;;;0.00;0.00;;;4.90;99.90;;;;;;5010129;28;20125;-87
2023/11/27 06:15:45;;;;;;;0.10;0.10;;;;;;;;;;5012412;28;20025;-87
2023/11/27 06:18:11;;;;;;;0.10;0.10;;;;;;;;;;5009856;28;20038;-87
2023/11/27 06:20:37;;;;;;;0.00;0.00;;;;;;;;;;5011021;28;20036;-86
2023/11/27 06:23:04;;;;;;;0.00;0.00;;;;;;;;;;5023919;28;20025;-86
2023/11/27 06:25:30;;;;;;;0.10;0.10;;;;;;;;;;5008712;28;20152;-87
2023/11/27 06:27:56;;;;;;;0.00;0.00;;;;;;;;;;5024879;28;20030;-87
2023/11/27 06:30:22;;;;;;;0.10;0.10;;;;;;;;;;5007021;28;20080;-86
2023/11/27 06:32:48;;;;;;;0.10;0.10;;;;;;;;;;5021724;28;20505;-86
2023/11/27 06:35:14;;;;;;;0.00;0.00;;;;;;;;;;5010152;28;20041;-88
2023/11/27 06:37:40;;;;;;;0.10;0.10;;;;;;;;;;5010392;28;20462;-86
2023/11/27 06:40:06;;;;;;;0.10;0.10;;;4.90;99.90;;;;;;5027217;28;20537;-87
2023/11/27 06:42:32;;;;;;;0.10;0.10;;;;;;;;;;5042558;28;20033;-86
2023/11/27 06:44:58;;;;;;;0.10;0.10;;;;;;;;;;5011452;28;20034;-85
2023/11/27 06:47:24;;;;;;;0.10;0.10;;;;;;;;;;5040544;28;20022;-87
2023/11/27 06:49:50;;;;;;;0.10;0.10;;;;;;;;;;5011854;28;20109;-88
2023/11/27 06:52:17;;;;;;;0.10;0.10;;;;;;;;;;5042389;28;20034;-88
2023/11/27 06:54:43;;;;;;;0.10;0.10;;;;;;;;;;5043582;28;20104;-86
2023/11/27 06:57:08;;;;;;;0.10;0.10;;;4.80;99.90;;;;;;5028143;28;20029;-87
2023/11/27 06:59:36;;;;;;;0.10;0.10;;;4.70;99.90;;;;;;5012813;28;20017;-86
2023/11/27 07:02:02;;;;;;;0.00;0.00;;;;;;;;;;5012410;28;20602;-86
2023/11/27 07:04:28;;;;;;;0.10;0.10;;;;;;;;;;5040495;28;20121;-85
2023/11/27 07:06:54;;;;;;;0.05;0.05;;;;;;;;;;5014875;28;20029;-85
2023/11/27 07:09:23;;;;;;;0.10;0.10;;;;;;;;;;5012359;28;20038;-86
2023/11/27 07:11:50;;;;;;;0.10;0.10;;;;;;;;;;5043557;28;20029;-86
2023/11/27 07:14:16;;;;;;;0.10;0.10;;;;;;;;;;5030659;28;20096;-86
2023/11/27 07:16:42;;;;;;;0.10;0.10;;;;;;;;;;5010077;28;20022;-86
2023/11/27 07:19:08;;;;;;;0.10;0.10;;;4.80;99.90;;;;;;5009933;28;20041;-86
2023/11/27 07:21:34;;;;;;;0.10;0.10;;;;;;;;;;5009752;28;20092;-86
2023/11/27 07:23:59;;;;;;;0.10;0.10;;;4.80;99.90;;;;;;5039363;28;20495;-85
2023/11/27 07:26:26;;;;;;;0.10;0.10;;;4.70;99.90;;;;;;5043185;28;20026;-85
2023/11/27 07:28:53;;;;;;;0.10;0.10;;;;;;;;;;5010600;28;20068;-86
2023/11/27 07:31:19;;;;;;;0.10;0.10;;;;;;;;;;5010458;28;20117;-86
2023/11/27 07:33:45;;;;;;;0.10;0.10;;;;;;;;;;5010411;28;20183;-86
2023/11/27 07:36:12;;;;;;;0.10;0.10;;;;;;;;;;5026788;28;20022;-86
2023/11/27 07:38:40;;;;;;;0.08;0.08;;;4.90;99.90;;;;;;5026751;28;20025;-86
2023/11/27 07:41:06;;;;;;;0.10;0.10;;;;;;;;;;5009842;28;20033;-86
2023/11/27 07:43:32;;;;;;;0.10;0.10;;;4.80;99.90;;;;;;5027857;28;20112;-85
2023/11/27 07:45:58;;;;;;;0.10;0.10;;;;;;;;;;5010538;28;20029;-86
2023/11/27 07:48:24;;;;;;;0.10;0.10;;;;;;;;;;5042531;28;20125;-85
2023/11/27 07:50:51;;;;;;;0.10;0.10;;;;;;;;;;5009726;28;20068;-86
2023/11/27 07:53:19;;;;;;;0.10;0.10;;;4.90;99.90;;;;;;5024506;28;20479;-86
2023/11/27 07:55:46;;;;;;;0.10;0.10;;;;;;;;;;5008250;28;20064;-86
2023/11/27 07:58:15;;;;;;;0.10;0.10;;;;;;;;;;5009876;28;20034;-85
2023/11/27 08:00:41;;;;;;;0.00;0.00;;;;;;;;;;5008346;28;20475;-86
2023/11/27 08:03:07;;;;;;;0.10;0.10;;;;;;;;;;5029829;28;20265;-86
2023/11/27 08:05:35;;;;;;;0.10;0.10;;;;;;;;;;5032134;28;20037;-86
2023/11/27 08:08:01;;;;;;;0.10;0.10;;;;;;;;;;5046099;28;20029;-86
2023/11/27 08:10:28;;;;;;;0.10;0.10;;;;;;;;;;5029569;28;20037;-86
2023/11/27 08:12:54;;;;;;;0.10;0.10;;;;;;;;;;5046388;28;20092;-86
2023/11/27 08:15:20;;;;;;;0.10;0.10;;;;;;;;;;5029899;28;20482;-86
2023/11/27 08:17:47;;;;;;;0.08;0.08;;;5.00;99.90;;;;;;5046553;28;20118;-86
2023/11/27 08:20:17;;;;;;;0.10;0.10;;;;;;;;;;5012952;28;20124;-86
2023/11/27 08:22:43;;;;;;;0.10;0.10;;;;;;;;;;5013160;28;20021;-86
2023/11/27 08:25:10;;;;;;;0.00;0.00;;;5.10;99.90;;;;;;5029114;28;20371;-86
2023/11/27 08:27:38;;;;;;;0.10;0.10;;;;;;;;;;5013126;28;20014;-86
2023/11/27 08:30:06;;;;;;;0.10;0.10;;;5.10;99.90;;;;;;5012997;28;20018;-86
2023/11/27 08:32:32;;;;;;;0.10;0.10;;;;;;;;;;5012994;28;20049;-86
2023/11/27 08:34:58;;;;;;;0.00;0.00;;;;;;;;;;5045620;28;20461;-86
2023/11/27 08:37:24;;;;;;;0.10;0.10;;;;;;;;;;5029138;28;20487;-86
2023/11/27 08:39:50;;;;;;;0.10;0.10;;;;;;;;;;5027163;28;20014;-86
2023/11/27 08:42:16;;;;;;;0.10;0.10;;;;;;;;;;5043112;28;20125;-86
2023/11/27 08:44:42;;;;;;;0.10;0.10;;;;;;;;;;5012758;28;20026;-86
2023/11/27 08:47:08;;;;;;;0.10;0.10;;;;;;;;;;5042803;28;20026;-86
2023/11/27 08:49:34;;;;;;;0.00;0.00;;;;;;;;;;5012952;28;20079;-86
2023/11/27 08:52:00;;;;;;;0.00;0.00;;;;;;;;;;5027546;28;20437;-86
2023/11/27 08:54:32;;;;;;;0.00;0.00;;;5.30;99.90;;;;;;5024675;28;20141;-86
2023/11/27 08:56:58;;;;;;;0.10;0.10;;;5.30;99.90;;;;;;5012680;28;20026;-87
2023/11/27 08:59:24;;;;;;;0.10;0.10;;;5.40;99.90;;;;;;5012264;28;20026;-87
2023/11/27 09:01:51;;;;;;;0.10;0.10;;;;;;;;;;5010581;28;20045;-88
2023/11/27 09:04:18;;;;;;;0.08;0.08;;;;;;;;;;5012646;28;20029;-87
2023/11/27 09:06:45;;;;;;;0.00;0.00;;;;;;;;;;5045604;28;20022;-87
2023/11/27 09:09:11;;;;;;;0.00;0.00;;;;;;;;;;5028608;28;20030;-87
2023/11/27 09:11:37;;;;;;;0.10;0.10;;;;;;;;;;5028069;28;20049;-86
2023/11/27 09:14:03;;;;;;;0.00;0.00;;;5.60;99.90;;;;;;5011382;28;20064;-88
2023/11/27 09:16:29;;;;;;;0.00;0.00;;;;;;;;;;5045353;28;20144;-87
2023/11/27 09:18:55;;;;;;;0.10;0.10;;;5.60;99.90;;;;;;5013080;28;20045;-87
2023/11/27 09:21:21;;;;;;;0.10;0.10;;;;;;;;;;5044035;28;20019;-87
2023/11/27 09:23:47;;;;;;;0.10;0.10;;;;;;;;;;5030221;28;20022;-87
2023/11/27 09:26:16;;;;;;;0.10;0.10;;;5.70;99.90;;;;;;5009862;28;20033;-87
2023/11/27 09:28:42;;;;;;;0.08;0.08;;;;;;;;;;5015881;28;20537;-86
2023/11/27 09:31:08;;;;;;;0.00;0.00;;;;;;;;;;5012189;28;20049;-87
2023/11/27 09:33:35;;;;;;;0.10;0.10;;;;;;;;;;5030491;28;20117;-88
2023/11/27 09:36:01;;;;;;;0.10;0.10;;;;;;;;;;5043172;28;20030;-86
2023/11/27 09:38:27;;;;;;;0.10;0.10;;;;;;;;;;5014044;28;20022;-86
2023/11/27 09:40:53;;;;;;;0.00;0.00;;;5.60;99.90;;;;;;5027536;28;20048;-86
2023/11/27 09:43:19;;;;;;;0.10;0.10;;;;;;;;;;5013800;28;20087;-86
2023/11/27 09:45:45;;;;;;;0.10;0.10;;;5.60;99.90;;;;;;5041476;28;20040;-85
2023/11/27 09:48:12;;;;;;;0.10;0.10;;;;;;;;;;5010973;28;20038;-87
2023/11/27 09:50:39;;;;;;;0.10;0.10;;;5.70;99.90;;;;;;5010935;28;20037;-87
2023/11/27 09:53:09;;;;;;;0.10;0.10;;;5.70;99.90;;;;;;5011304;28;20438;-88
2023/11/27 09:55:37;;;;;;;0.08;0.08;;;5.60;99.90;;;;;;5042882;28;20104;-87
2023/11/27 09:58:05;;;;;;;0.10;0.10;;;;;;;;;;5013680;28;20030;-87
2023/11/27 10:00:31;;;;;;;0.10;0.10;;;;;;;;;;5027341;28;20387;-88
2023/11/27 10:02:58;;;;;;;0.10;0.10;;;5.60;99.90;;;;;;5011396;28;20025;-87
2023/11/27 10:05:24;;;;;;;0.10;0.10;;;;;;;;;;5011089;28;20333;-88
2023/11/27 10:07:52;;;;;;;0.00;0.00;;;5.70;99.90;;;;;;5027798;28;20022;-86
2023/11/27 10:10:25;;;;;;;0.10;0.10;;;5.70;99.90;;;;;;5010534;28;20052;-86
2023/11/27 10:12:57;;;;;;;0.10;0.10;;;5.60;99.90;;;;;;5011172;28;20383;-87
2023/11/27 10:15:26;;;;;;;0.10;0.10;;;;;;;;;;5008720;28;20050;-87
2023/11/27 10:17:52;;;;;;;0.10;0.10;;;5.60;99.90;;;;;;5029461;28;20394;-88
2023/11/27 10:20:20;;;;;;;0.00;0.00;;;5.50;99.90;;;;;;5010360;28;20030;-88
2023/11/27 10:22:46;;;;;;;0.10;0.10;;;;;;;;;;5011349;28;20109;-87
2023/11/27 10:25:14;;;;;;;0.10;0.10;;;;;;;;;;5010044;28;20053;-86
2023/11/27 10:27:43;;;;;;;0.10;0.10;;;5.50;99.90;;;;;;5026987;28;20033;-85
2023/11/27 10:30:20;;;;;;;0.10;0.10;;;5.40;99.90;;;;;;5011432;28;20026;-86
2023/11/27 10:32:46;;;;;;;0.00;0.00;;;;;;;;;;5007606;28;20083;-86
2023/11/27 10:35:17;;;;;;;0.10;0.10;;;5.50;99.90;;;;;;5044438;28;20033;-85
2023/11/27 10:37:42;;;;;;;0.10;0.10;;;;;;;;;;5011078;28;20038;-86
2023/11/27 10:40:16;;;;;;;0.10;0.10;;;5.40;99.90;;;;;;5027742;28;20045;-85
2023/11/27 10:42:49;;;;;;;0.10;0.10;;;5.30;99.90;;;;;;5010613;28;20036;-86
2023/11/27 10:45:15;;;;;;;0.10;0.10;;;5.30;99.90;;;;;;5010665;28;20483;-86
2023/11/27 10:47:44;;;;;;;0.10;0.10;;;5.30;99.90;;;;;;5043078;28;20619;-85
2023/11/27 10:50:15;;;;;;;0.10;0.10;;;5.40;99.90;;;;;;5010102;28;20029;-86
2023/11/27 10:52:50;;;;;;;0.10;0.10;;;5.40;99.90;;;;;;5010658;28;20034;-85
2023/11/27 10:55:18;;;;;;;0.00;0.00;;;5.30;99.90;;;;;;5010454;28;20050;-86
2023/11/27 10:57:45;;;;;;;0.10;0.10;;;5.20;99.90;;;;;;5009820;28;20105;-85
2023/11/27 11:00:18;;;;;;;0.10;0.10;;;5.20;99.90;;;;;;5012232;28;20434;-86
2023/11/27 11:02:51;;;;;;;0.10;0.10;;;5.20;99.90;;;;;;5009173;28;20108;-85
2023/11/27 11:05:28;;;;;;;0.10;0.10;;;5.20;99.90;;;;;;5010779;28;20169;-84
2023/11/27 11:07:55;;;;;;;0.00;0.00;;;5.20;99.90;;;;;;5007381;28;20022;-85
2023/11/27 11:10:26;;;;;;;0.10;0.10;;;;;;;;;;5010208;28;20096;-85
2023/11/27 11:12:53;;;;;;;0.00;0.00;;;5.20;99.90;;;;;;5043405;28;20072;-86
2023/11/27 11:15:33;;;;;;;0.00;0.00;;;5.10;99.90;;;;;;5011940;28;20026;-85
2023/11/27 11:18:10;;;;;;;0.00;0.00;;;5.00;99.90;;;;;;5014253;28;20475;-85
2023/11/27 11:21:14;;;;;;;0.00;0.00;;;5.00;99.90;;;;;;5012712;28;20028;-85
2023/11/27 11:23:54;;;;;;;0.10;0.10;;;4.90;99.90;;;;;;5023307;28;20041;-85
2023/11/27 11:26:22;;;;;;;;;;;4.80;99.90;;;;;;5021446;28;20030;-85
2023/11/27 11:29:11;;;;;;;0.10;0.10;;;4.80;99.90;;;;;;5045134;28;19920;-85
2023/11/27 11:31:46;;;;;;;0.10;0.10;;;4.80;99.90;;;;;;5011628;28;20124;-86
2023/11/27 11:34:23;;;;;;;0.10;0.10;;;4.70;99.90;;;;;;5039459;28;20111;-85
2023/11/27 11:36:58;;;;;;;0.10;0.10;;;4.70;99.90;;;;;;5029502;28;20735;-87
2023/11/27 11:39:24;;;;;;;0.10;0.10;;;;;;;;;;5013406;28;20029;-88
2023/11/27 11:42:04;;;;;;;0.10;0.10;;;6.90;99.90;;;;;;5012481;28;20026;-86
2023/11/27 11:44:35;;;;;;;0.10;0.10;;;4.50;99.90;;;;;;5044300;28;20044;-86
2023/11/27 11:47:28;;;;;;;0.00;0.00;;;4.60;99.90;;;;;;5023188;28;20088;-85
2023/11/27 11:50:17;;;;;;;0.10;0.10;;;4.50;99.90;;;;;;5011785;28;20172;-86
2023/11/27 11:52:43;;;;;;;0.10;0.10;;;;;;;;;;5004207;28;20180;-85
2023/11/27 11:55:30;;;;;;;0.10;0.10;;;4.40;99.90;;;;;;5007953;28;20120;-85
2023/11/27 11:57:57;;;;;;;0.10;0.10;;;4.40;99.90;;;;;;5011992;28;20018;-86
2023/11/27 12:00:23;;;;;;;0.08;0.08;;;4.40;99.90;;;;;;5043292;28;20030;-87
2023/11/27 12:02:54;;;;;;;0.10;0.10;;;4.40;99.90;;;;;;5012901;28;20747;-85
2023/11/27 12:05:23;;;;;;;0.00;0.00;;;;;;;;;;5018310;28;20164;-87
2023/11/27 12:07:49;;;;;;;0.10;0.10;;;;;;;;;;5044789;28;20037;-86
2023/11/27 12:10:17;;;;;;;0.00;0.00;;;;;;;;;;5044911;28;20030;-86
2023/11/27 12:12:49;;;;;;;0.10;0.10;;;4.40;99.90;;;;;;5013201;28;20479;-86
2023/11/27 12:15:16;;;;;;;0.05;0.05;;;4.40;99.90;;;;;;5014166;28;20491;-86
2023/11/27 12:17:48;;;;;;;0.10;0.10;;;4.40;99.90;;;;;;5044701;28;20026;-85
2023/11/27 12:20:15;;;;;;;0.10;0.10;;;;;;;;;;5006441;28;20030;-86
2023/11/27 12:22:44;;;;;;;0.10;0.10;;;4.40;99.90;;;;;;5043409;28;20022;-87
2023/11/27 12:25:11;;;;;;;0.10;0.10;;;;;;;;;;5005528;28;20030;-86
2023/11/27 12:27:37;;;;;;;0.00;0.00;;;;;;;;;;5016058;28;20087;-85
2023/11/27 12:30:03;;;;;;;0.10;0.10;;;4.50;99.90;;;;;;5044079;28;20022;-88
2023/11/27 12:32:29;;;;;;;0.10;0.10;;;4.30;99.90;;;;;;5008178;28;20033;-87
2023/11/27 12:34:55;;;;;;;0.10;0.10;;;;;;;;;;5029464;28;20076;-86
2023/11/27 12:37:21;;;;;;;0.10;0.10;;;;;;;;;;5042387;28;20041;-87
2023/11/27 12:39:53;;;;;;;0.10;0.10;;;4.20;99.90;;;;;;5029016;28;20113;-86
2023/11/27 12:42:20;;;;;;;0.10;0.10;;;4.20;99.90;;;;;;5026749;28;20042;-87
2023/11/27 12:44:49;;;;;;;0.10;0.10;;;4.10;99.90;;;;;;5003084;28;20037;-87
2023/11/27 12:47:18;;;;;;;0.10;0.10;;;4.30;99.90;;;;;;5008524;28;20092;-87
2023/11/27 12:49:46;;;;;;;0.10;0.10;;;;;;;;;;5033499;28;20116;-87
2023/11/27 12:52:14;;;;;;;0.10;0.10;;;;;;;;;;5023175;28;20054;-87
2023/11/27 12:54:40;;;;;;;0.10;0.10;;;4.20;99.90;;;;;;5021338;28;20036;-87
2023/11/27 12:57:06;;;;;;;0.10;0.10;;;4.20;99.90;;;;;;5005236;28;20113;-86
2023/11/27 12:59:32;;;;;;;0.05;0.05;;;;;;;;;;5021331;28;20496;-87
2023/11/27 13:01:58;;;;;;;0.10;0.10;;;;;;;;;;5008936;28;20104;-86
2023/11/27 13:04:29;;;;;;;0.10;0.10;;;4.20;99.90;;;;;;5025825;28;20093;-86
2023/11/27 13:07:09;;;;;;;0.10;0.10;;;4.10;99.90;;;;;;5011653;28;20034;-86
2023/11/27 13:09:35;;;;;;;0.10;0.10;;;;;;;;;;4999420;28;20487;-87
2023/11/27 13:12:15;;;;;;;0.10;0.10;;;;;;;;;;5039644;28;20034;-88
2023/11/27 13:14:44;;;;;;;0.10;0.10;;;4.00;99.90;;;;;;5010219;28;20521;-86
2023/11/27 13:17:19;;;;;;;0.10;0.10;;;3.90;99.90;;;;;;5008489;28;20040;-87
2023/11/27 13:19:50;;;;;;;0.10;0.10;;;3.90;99.90;;;;;;5007957;28;20026;-87
2023/11/27 13:22:17;;;;;;;0.10;0.10;;;;;;;;;;5007112;28;20372;-85
2023/11/27 13:24:43;;;;;;;0.10;0.10;;;3.90;99.90;;;;;;5014666;28;20558;-85
2023/11/27 13:27:16;;;;;;;0.10;0.10;;;3.90;99.90;;;;;;5011404;28;20030;-84
2023/11/27 13:29:43;;;;;;;0.10;0.10;;;3.80;99.90;;;;;;5012950;28;20030;-84
2023/11/27 13:32:09;;;;;;;0.10;0.10;;;;;;;;;;5028778;28;20407;-85
2023/11/27 13:34:37;;;;;;;0.10;0.10;;;;;;;;;;5045185;28;20037;-85
2023/11/27 13:37:10;;;;;;;0.10;0.10;;;;;;;;;;5012123;28;20030;-84
2023/11/27 13:39:41;;;;;;;0.10;0.10;;;3.80;99.90;;;;;;5014580;28;20550;-85
2023/11/27 13:42:08;;;;;;;0.10;0.10;;;;;;;;;;5011877;28;20036;-84
2023/11/27 13:44:37;;;;;;;0.08;0.08;;;3.70;99.90;;;;;;5011855;28;20041;-85
2023/11/27 13:47:05;;;;;;;0.10;0.10;;;3.70;99.90;;;;;;5012718;28;20021;-84
2023/11/27 13:49:31;;;;;;;0.10;0.10;;;;;;;;;;5004577;28;20411;-85
2023/11/27 13:52:03;;;;;;;0.10;0.10;;;;;;;;;;5015069;28;20032;-83
2023/11/27 13:54:31;;;;;;;0.10;0.10;;;3.60;99.90;;;;;;5006388;28;20406;-85
2023/11/27 13:57:00;;;;;;;0.00;0.00;;;3.60;99.90;;;;;;5009368;28;20041;-84
2023/11/27 13:59:35;;;;;;;0.10;0.10;;;3.50;99.90;;;;;;5013381;28;20118;-85
2023/11/27 14:02:09;;;;;;;0.10;0.10;;;3.40;99.90;;;;;;5012510;28;20068;-85
2023/11/27 14:04:35;;;;;;;0.00;0.00;;;;;;;;;;5010060;28;20071;-85
2023/11/27 14:07:01;;;;;;;0.10;0.10;;;;;;;;;;5008024;28;20033;-84
2023/11/27 14:12:20;;;;;;;0.00;0.00;;;3.40;99.90;;;;;;5009625;28;20037;-84
2023/11/27 14:14:59;;;;;;;0.10;0.10;;;;;;;;;;5021984;28;20525;-85
2023/11/27 14:17:32;;;;;;;0.10;0.10;;;;;;;;;;5039308;28;20508;-85
2023/11/27 14:23:15;;;;;;;0.00;0.00;;;;;;;;;;4966588;28;20041;-86
2023/11/27 14:30:54;;;;;;;0.10;0.10;;;3.40;99.90;;;;;;5006622;28;20490;-85
2023/11/27 14:33:20;;;;;;;0.10;0.10;;;3.30;99.90;;;;;;5004618;28;20034;-85
2023/11/27 14:35:46;;;;;;;0.10;0.10;;;3.40;99.90;;;;;;5011792;28;20033;-85
2023/11/27 14:38:14;;;;;;;0.00;0.00;;;;;;;;;;5011640;28;20021;-84
2023/11/27 14:40:41;;;;;;;0.10;0.10;;;;;;;;;;5011938;28;20032;-86
2023/11/27 14:43:07;;;;;;;0.05;0.05;;;;;;;;;;5015856;28;20022;-85
2023/11/27 14:45:42;;;;;;;0.10;0.10;;;;;;;;;;5017310;28;20084;-84
2023/11/27 14:48:13;;;;;;;0.00;0.00;;;3.20;99.90;;;;;;5012664;28;20022;-83
2023/11/27 14:50:39;;;;;;;0.08;0.08;;;;;;;;;;5040998;28;20042;-85
2023/11/27 14:53:05;;;;;;;0.00;0.00;;;3.20;99.90;;;;;;5010846;28;20435;-85
2023/11/27 14:55:32;;;;;;;0.10;0.10;;;;;;;;;;5013764;28;20022;-84
2023/11/27 14:57:59;;;;;;;0.10;0.10;;;;;;;;;;5041525;22;20040;-93
2023/11/27 15:00:29;;;;;;;0.00;0.00;;;;;;;;;;5078621;28;20039;-92
2023/11/27 15:02:55;;;;;;;0.10;0.10;;;;;;;;;;5079876;28;20210;-94
2023/11/27 15:05:21;;;;;;;0.00;0.00;;;;;;;;;;5081144;28;20020;-94
2023/11/27 15:07:48;;;;;;;0.00;0.00;;;;;;;;;;5065031;28;20028;-92
2023/11/27 15:10:15;;;;;;;0.10;0.10;;;;;;;;;;5059384;28;20026;-91
2023/11/27 15:33:18;;;;;;;0.10;0.10;;;;;;;;;;4995654;28;20046;-94
2023/11/27 15:35:45;;;;;;;0.10;0.10;;;;;;;;;;4986330;28;22360;-93
2023/11/27 15:38:12;;;;;;;0.10;0.10;;;;;;;;;;4988736;28;20026;-95
2023/11/27 15:40:38;;;;;;;0.00;0.00;;;;;;;;;;4987963;28;20023;-93
2023/11/27 15:43:04;;;;;;;0.00;0.00;;;;;;;;;;4984850;28;20024;-92
2023/11/27 15:45:30;;;;;;;0.00;0.00;;;;;;;;;;4990632;28;20034;-92
2023/11/27 15:47:56;;;;;;;0.00;0.00;;;;;;;;;;4999182;28;20018;-93
2023/11/27 15:50:30;;;;;;;0.00;0.00;;;3.00;99.90;;;;;;4987571;28;20118;-94
2023/11/27 15:52:58;;;;;;;0.10;0.10;;;;;;;;;;4990154;28;20497;-93
2023/11/27 15:55:24;;;;;;;0.10;0.10;;;;;;;;;;4991230;28;20363;-93
2023/11/27 15:57:50;;;;;;;0.10;0.10;;;;;;;;;;4991057;28;20322;-93
2023/11/27 16:00:18;;;;;;;0.10;0.10;;;;;;;;;;4984331;28;20057;-93
2023/11/27 16:02:47;;;;;;;0.10;0.10;;;2.90;99.90;;;;;;5003534;28;20022;-94
2023/11/27 16:05:17;;;;;;;0.00;0.00;;;;;;;;;;4991473;28;20026;-93
2023/11/27 16:07:43;;;;;;;0.10;0.10;;;;;;;;;;4987934;28;20030;-93
2023/11/27 16:10:18;;;;;;;0.10;0.10;;;;;;;;;;5004520;28;20401;-93
2023/11/27 16:12:44;;;;;;;0.10;0.10;;;;;;;;;;4987087;28;20777;-94
2023/11/27 16:15:10;;;;;;;0.00;0.00;;;;;;;;;;4984444;28;20034;-93
2023/11/27 16:17:42;;;;;;;0.10;0.10;;;;;;;;;;4986422;28;20041;-93
2023/11/27 16:20:11;;;;;;;0.00;0.00;;;;;;;;;;5008025;28;20030;-94
2023/11/27 16:22:38;;;;;;;0.10;0.10;;;;;;;;;;4987491;28;20091;-94
2023/11/27 16:25:05;;;;;;;0.10;0.10;;;;;;;;;;4991719;28;20037;-93
2023/11/27 16:27:31;;;;;;;0.10;0.10;;;;;;;;;;4993262;28;20041;-94
2023/11/27 16:29:58;;;;;;;0.00;0.00;;;;;;;;;;4987226;28;20027;-94
2023/11/27 16:32:25;;;;;;;0.10;0.10;;;;;;;;;;4993699;28;20038;-93
2023/11/27 16:34:51;;;;;;;0.10;0.10;;;;;;;;;;4990857;28;20137;-93
2023/11/27 16:37:17;;;;;;;0.00;0.00;;;;;;;;;;5007832;28;20516;-93
2023/11/27 16:39:43;;;;;;;0.10;0.10;;;;;;;;;;4993303;28;20046;-93
2023/11/27 16:42:10;;;;;;;0.10;0.10;;;;;;;;;;4992191;28;20030;-93
2023/11/27 16:44:36;;;;;;;0.03;0.03;;;;;;;;;;4994181;28;20037;-94
2023/11/27 16:47:02;;;;;;;0.10;0.10;;;;;;;;;;4984933;28;20041;-94
2023/11/27 16:49:29;;;;;;;0.10;0.10;;;;;;;;;;5003944;28;20022;-93
2023/11/27 16:51:55;;;;;;;0.10;0.10;;;;;;;;;;5013270;28;20045;-94
2023/11/27 16:54:21;;;;;;;0.10;0.10;;;;;;;;;;4991045;28;20026;-94
2023/11/27 16:56:48;;;;;;;0.10;0.10;;;;;;;;;;5008620;28;20026;-92
2023/11/27 16:59:15;;;;;;;0.10;0.10;;;;;;;;;;4990271;28;20141;-93
2023/11/27 17:01:41;;;;;;;0.00;0.00;;;;;;;;;;4990189;28;20053;-93
2023/11/27 17:04:07;;;;;;;0.10;0.10;;;;;;;;;;4992888;28;20342;-94
2023/11/27 17:06:33;;;;;;;0.03;0.03;;;;;;;;;;4988638;28;20037;-94
2023/11/27 17:08:59;;;;;;;0.10;0.10;;;;;;;;;;5005419;28;20026;-92
2023/11/27 17:11:25;;;;;;;0.10;0.10;;;;;;;;;;4995460;28;20959;-94
2023/11/27 17:13:51;;;;;;;0.00;0.00;;;;;;;;;;4998296;28;20030;-96
2023/11/27 17:16:17;;;;;;;0.05;0.05;;;;;;;;;;5015059;28;20022;-95
2023/11/27 17:18:43;;;;;;;0.10;0.10;;;;;;;;;;5006757;28;20054;-93
2023/11/27 17:21:09;;;;;;;0.00;0.00;;;;;;;;;;4990433;28;20026;-93
2023/11/27 17:23:37;;;;;;;0.03;0.03;;;;;;;;;;4989810;28;20026;-93